Weather

Fire Weather Watch

Issued:
2:43 PM MST on November 19, 2017
Expires:
8:00 PM MST on November 20, 2017
Clear
Sunday 11/19 0%
Clear
Clear. Lows overnight in the low 30s.
Partly Cloudy
Monday 11/20 0%
Partly Cloudy
Sunshine and clouds mixed. High 61F. Winds WSW at 5 to 10 mph.
Partly Cloudy
Tuesday 11/21 0%
Partly Cloudy
Partly cloudy. High 66F. Winds N at 5 to 10 mph.
Clear
Wednesday 11/22 0%
Clear
Sunny skies. High 66F. Winds WNW at 5 to 10 mph.
Clear
Thursday 11/23 0%
Clear
Sunny skies. High 69F. Winds NNW at 5 to 10 mph.

 

 

For a detailed forecast click the banner below.

ballooncastlogo

 

 

Available data for KABQ from the past 2 hours
ALBUQUERQUE, NM
Metar
KABQ 200252Z 14003KT 10SM FEW250 05/M17 A3018 RMK AO2 SLP223 T00501172 53009

02:52 UTC

Wind: 140° 3kt

Visibility: 10 SM

Sky: FEW 25000 ft

Temp: 5 deg C / 41 deg F

Dewpoint: -17 deg C / 1.4 deg F

Pressure: 30.18 inHg

TAF
KABQ 192322Z 2000/2024 VRB03KT P6SM BKN250 FM200900 01005KT P6SM SCT250 FM202000 29006KT P6SM SCT200